sensor_id;sensor_type;location;lat;lon;timestamp;pressure;altitude;pressure_sealevel;temperature;humidity
69402;BME280;56589;51.992;5.924;2023-05-23T00:00:57;101252.63;;;14.92;70.99
69402;BME280;56589;51.992;5.924;2023-05-23T00:03:24;101253.56;;;14.91;70.90
69402;BME280;56589;51.992;5.924;2023-05-23T00:05:50;101265.22;;;14.88;71.01
69402;BME280;56589;51.992;5.924;2023-05-23T00:08:16;101247.53;;;14.89;71.09
69402;BME280;56589;51.992;5.924;2023-05-23T00:10:45;101259.47;;;14.94;70.75
69402;BME280;56589;51.992;5.924;2023-05-23T00:13:11;101262.72;;;14.98;70.76
69402;BME280;56589;51.992;5.924;2023-05-23T00:15:37;101249.38;;;14.99;71.06
69402;BME280;56589;51.992;5.924;2023-05-23T00:18:03;101253.84;;;14.99;70.91
69402;BME280;56589;51.992;5.924;2023-05-23T00:20:29;101258.50;;;14.95;71.03
69402;BME280;56589;51.992;5.924;2023-05-23T00:22:55;101262.34;;;14.91;71.30
69402;BME280;56589;51.992;5.924;2023-05-23T00:25:21;101258.13;;;14.89;71.42
69402;BME280;56589;51.992;5.924;2023-05-23T00:27:50;101254.75;;;14.87;71.65
69402;BME280;56589;51.992;5.924;2023-05-23T00:30:16;101254.13;;;14.83;71.31
69402;BME280;56589;51.992;5.924;2023-05-23T00:32:42;101262.91;;;14.83;71.83
69402;BME280;56589;51.992;5.924;2023-05-23T00:35:08;101266.63;;;14.81;71.72
69402;BME280;56589;51.992;5.924;2023-05-23T00:37:34;101266.22;;;14.74;72.23
69402;BME280;56589;51.992;5.924;2023-05-23T00:39:59;101273.91;;;14.77;72.18
69402;BME280;56589;51.992;5.924;2023-05-23T00:42:25;101276.47;;;14.79;71.75
69402;BME280;56589;51.992;5.924;2023-05-23T00:44:54;101274.78;;;14.78;72.09
69402;BME280;56589;51.992;5.924;2023-05-23T00:47:20;101274.28;;;14.73;72.52
69402;BME280;56589;51.992;5.924;2023-05-23T00:49:46;101275.25;;;14.72;72.55
69402;BME280;56589;51.992;5.924;2023-05-23T00:52:13;101272.59;;;14.72;73.04
69402;BME280;56589;51.992;5.924;2023-05-23T00:54:39;101280.88;;;14.67;73.03
69402;BME280;56589;51.992;5.924;2023-05-23T00:57:06;101279.47;;;14.62;73.24
69402;BME280;56589;51.992;5.924;2023-05-23T00:59:33;101284.25;;;14.56;73.81
69402;BME280;56589;51.992;5.924;2023-05-23T01:02:03;101281.09;;;14.51;73.28
69402;BME280;56589;51.992;5.924;2023-05-23T01:04:29;101287.78;;;14.44;73.67
69402;BME280;56589;51.992;5.924;2023-05-23T01:06:56;101281.03;;;14.40;73.84
69402;BME280;56589;51.992;5.924;2023-05-23T01:09:22;101282.44;;;14.33;74.44
69402;BME280;56589;51.992;5.924;2023-05-23T01:11:58;101286.47;;;14.26;74.90
69402;BME280;56589;51.992;5.924;2023-05-23T01:14:41;101279.09;;;14.18;75.21
69402;BME280;56589;51.992;5.924;2023-05-23T01:17:18;101293.91;;;14.08;75.38
69402;BME280;56589;51.992;5.924;2023-05-23T01:19:59;101300.25;;;14.05;75.67
69402;BME280;56589;51.992;5.924;2023-05-23T01:26:02;101293.91;;;13.95;75.64
69402;BME280;56589;51.992;5.924;2023-05-23T01:28:54;101287.38;;;13.88;76.47
69402;BME280;56589;51.992;5.924;2023-05-23T01:31:26;101298.91;;;13.87;75.85
69402;BME280;56589;51.992;5.924;2023-05-23T01:33:54;101296.03;;;13.90;76.04
69402;BME280;56589;51.992;5.924;2023-05-23T01:36:21;101297.63;;;13.93;76.04
69402;BME280;56589;51.992;5.924;2023-05-23T01:38:47;101292.00;;;13.97;76.20
69402;BME280;56589;51.992;5.924;2023-05-23T01:41:12;101287.16;;;14.04;75.82
69402;BME280;56589;51.992;5.924;2023-05-23T01:43:38;101290.22;;;14.11;75.88
69402;BME280;56589;51.992;5.924;2023-05-23T01:46:07;101296.75;;;14.18;75.70
69402;BME280;56589;51.992;5.924;2023-05-23T01:48:35;101297.47;;;14.20;75.31
69402;BME280;56589;51.992;5.924;2023-05-23T01:51:03;101302.44;;;14.24;75.25
69402;BME280;56589;51.992;5.924;2023-05-23T01:53:30;101294.63;;;14.23;74.95
69402;BME280;56589;51.992;5.924;2023-05-23T01:55:57;101295.78;;;14.19;75.41
69402;BME280;56589;51.992;5.924;2023-05-23T01:58:23;101298.84;;;14.13;74.98
69402;BME280;56589;51.992;5.924;2023-05-23T02:00:49;101299.81;;;14.12;75.08
69402;BME280;56589;51.992;5.924;2023-05-23T02:03:18;101302.47;;;14.12;75.37
69402;BME280;56589;51.992;5.924;2023-05-23T02:05:44;101304.13;;;14.13;75.23
69402;BME280;56589;51.992;5.924;2023-05-23T02:08:09;101318.81;;;14.17;75.56
69402;BME280;56589;51.992;5.924;2023-05-23T02:10:35;101320.50;;;14.18;75.32
69402;BME280;56589;51.992;5.924;2023-05-23T02:13:01;101308.47;;;14.14;75.42
69402;BME280;56589;51.992;5.924;2023-05-23T02:15:27;101313.75;;;14.14;75.51
69402;BME280;56589;51.992;5.924;2023-05-23T02:17:53;101314.69;;;14.13;75.40
69402;BME280;56589;51.992;5.924;2023-05-23T02:20:21;101314.69;;;14.13;75.75
69402;BME280;56589;51.992;5.924;2023-05-23T02:22:47;101318.31;;;14.12;75.77
69402;BME280;56589;51.992;5.924;2023-05-23T02:25:13;101320.81;;;14.13;75.69
69402;BME280;56589;51.992;5.924;2023-05-23T02:27:39;101312.69;;;14.16;75.39
69402;BME280;56589;51.992;5.924;2023-05-23T02:30:06;101328.44;;;14.18;75.42
69402;BME280;56589;51.992;5.924;2023-05-23T02:32:32;101322.81;;;14.10;75.42
69402;BME280;56589;51.992;5.924;2023-05-23T02:34:58;101328.53;;;14.03;75.49
69402;BME280;56589;51.992;5.924;2023-05-23T02:37:27;101328.03;;;13.98;75.77
69402;BME280;56589;51.992;5.924;2023-05-23T02:39:52;101328.97;;;13.97;75.61
69402;BME280;56589;51.992;5.924;2023-05-23T02:42:18;101342.28;;;13.96;76.14
69402;BME280;56589;51.992;5.924;2023-05-23T02:44:44;101340.47;;;13.96;75.94
69402;BME280;56589;51.992;5.924;2023-05-23T02:47:10;101342.50;;;13.93;75.69
69402;BME280;56589;51.992;5.924;2023-05-23T02:49:35;101343.34;;;13.93;76.23
69402;BME280;56589;51.992;5.924;2023-05-23T02:52:01;101353.06;;;13.93;75.84
69402;BME280;56589;51.992;5.924;2023-05-23T02:54:30;101344.63;;;13.88;76.12
69402;BME280;56589;51.992;5.924;2023-05-23T02:56:55;101337.44;;;13.90;76.02
69402;BME280;56589;51.992;5.924;2023-05-23T02:59:21;101338.19;;;13.92;76.23
69402;BME280;56589;51.992;5.924;2023-05-23T03:01:47;101346.00;;;13.93;76.01
69402;BME280;56589;51.992;5.924;2023-05-23T03:04:13;101340.81;;;13.92;75.70
69402;BME280;56589;51.992;5.924;2023-05-23T03:06:39;101335.84;;;13.87;75.84
69402;BME280;56589;51.992;5.924;2023-05-23T03:09:04;101342.16;;;13.85;75.93
69402;BME280;56589;51.992;5.924;2023-05-23T03:11:33;101337.97;;;13.82;76.14
69402;BME280;56589;51.992;5.924;2023-05-23T03:13:59;101345.03;;;13.82;76.10
69402;BME280;56589;51.992;5.924;2023-05-23T03:16:24;101340.38;;;13.85;75.98
69402;BME280;56589;51.992;5.924;2023-05-23T03:18:50;101349.34;;;13.83;76.03
69402;BME280;56589;51.992;5.924;2023-05-23T03:21:16;101348.81;;;13.77;75.97
69402;BME280;56589;51.992;5.924;2023-05-23T03:23:42;101356.44;;;13.69;76.31
69402;BME280;56589;51.992;5.924;2023-05-23T03:26:10;101350.72;;;13.63;76.67
69402;BME280;56589;51.992;5.924;2023-05-23T03:28:38;101351.03;;;13.58;76.46
69402;BME280;56589;51.992;5.924;2023-05-23T03:31:05;101346.91;;;13.54;76.98
69402;BME280;56589;51.992;5.924;2023-05-23T03:33:30;101362.09;;;13.50;76.75
69402;BME280;56589;51.992;5.924;2023-05-23T03:35:56;101357.88;;;13.48;77.02
69402;BME280;56589;51.992;5.924;2023-05-23T03:38:22;101348.44;;;13.44;76.88
69402;BME280;56589;51.992;5.924;2023-05-23T03:40:48;101354.69;;;13.43;77.09
69402;BME280;56589;51.992;5.924;2023-05-23T03:43:14;101362.50;;;13.44;77.23
69402;BME280;56589;51.992;5.924;2023-05-23T03:45:42;101359.75;;;13.46;77.00
69402;BME280;56589;51.992;5.924;2023-05-23T03:48:08;101356.25;;;13.45;77.23
69402;BME280;56589;51.992;5.924;2023-05-23T03:50:33;101361.34;;;13.48;77.26
69402;BME280;56589;51.992;5.924;2023-05-23T03:52:59;101365.78;;;13.48;76.62
69402;BME280;56589;51.992;5.924;2023-05-23T03:55:25;101363.97;;;13.48;76.85
69402;BME280;56589;51.992;5.924;2023-05-23T03:57:51;101365.47;;;13.52;76.55
69402;BME280;56589;51.992;5.924;2023-05-23T04:00:17;101374.03;;;13.56;76.54
69402;BME280;56589;51.992;5.924;2023-05-23T04:02:46;101372.25;;;13.57;76.09
69402;BME280;56589;51.992;5.924;2023-05-23T04:05:12;101378.38;;;13.57;76.08
69402;BME280;56589;51.992;5.924;2023-05-23T04:07:38;101382.81;;;13.57;76.32
69402;BME280;56589;51.992;5.924;2023-05-23T04:10:05;101374.13;;;13.55;75.97
69402;BME280;56589;51.992;5.924;2023-05-23T04:12:32;101383.66;;;13.57;76.23
69402;BME280;56589;51.992;5.924;2023-05-23T04:14:58;101376.34;;;13.61;76.02
69402;BME280;56589;51.992;5.924;2023-05-23T04:17:24;101377.13;;;13.63;75.78
69402;BME280;56589;51.992;5.924;2023-05-23T04:19:53;101377.72;;;13.66;76.02
69402;BME280;56589;51.992;5.924;2023-05-23T04:22:19;101385.66;;;13.66;75.78
69402;BME280;56589;51.992;5.924;2023-05-23T04:24:44;101394.22;;;13.70;75.40
69402;BME280;56589;51.992;5.924;2023-05-23T04:27:10;101387.78;;;13.74;75.80
69402;BME280;56589;51.992;5.924;2023-05-23T04:29:36;101388.72;;;13.73;75.15
69402;BME280;56589;51.992;5.924;2023-05-23T04:32:02;101395.78;;;13.72;75.15
69402;BME280;56589;51.992;5.924;2023-05-23T04:34:28;101399.59;;;13.68;75.10
69402;BME280;56589;51.992;5.924;2023-05-23T04:36:56;101399.81;;;13.65;74.94
69402;BME280;56589;51.992;5.924;2023-05-23T04:39:22;101410.56;;;13.62;75.18
69402;BME280;56589;51.992;5.924;2023-05-23T04:41:48;101406.44;;;13.58;74.82
69402;BME280;56589;51.992;5.924;2023-05-23T04:44:14;101418.06;;;13.56;75.07
69402;BME280;56589;51.992;5.924;2023-05-23T04:46:40;101421.84;;;13.51;74.71
69402;BME280;56589;51.992;5.924;2023-05-23T04:49:05;101424.59;;;13.50;74.97
69402;BME280;56589;51.992;5.924;2023-05-23T04:51:31;101427.28;;;13.48;74.69
69402;BME280;56589;51.992;5.924;2023-05-23T04:54:00;101418.66;;;13.46;74.97
69402;BME280;56589;51.992;5.924;2023-05-23T04:56:26;101425.13;;;13.41;74.88
69402;BME280;56589;51.992;5.924;2023-05-23T04:58:51;101428.72;;;13.40;74.80
69402;BME280;56589;51.992;5.924;2023-05-23T05:01:17;101440.34;;;13.37;74.59
69402;BME280;56589;51.992;5.924;2023-05-23T05:03:43;101443.25;;;13.33;74.97
69402;BME280;56589;51.992;5.924;2023-05-23T05:06:09;101447.16;;;13.27;75.32
69402;BME280;56589;51.992;5.924;2023-05-23T05:08:35;101443.97;;;13.22;75.60
69402;BME280;56589;51.992;5.924;2023-05-23T05:11:03;101448.66;;;13.17;75.36
69402;BME280;56589;51.992;5.924;2023-05-23T05:13:29;101444.34;;;13.16;75.30
69402;BME280;56589;51.992;5.924;2023-05-23T05:15:55;101452.16;;;13.17;75.25
69402;BME280;56589;51.992;5.924;2023-05-23T05:18:20;101456.59;;;13.17;75.75
69402;BME280;56589;51.992;5.924;2023-05-23T05:20:46;101456.97;;;13.11;75.48
69402;BME280;56589;51.992;5.924;2023-05-23T05:23:12;101463.41;;;13.07;76.05
69402;BME280;56589;51.992;5.924;2023-05-23T05:25:38;101458.31;;;13.04;75.65
69402;BME280;56589;51.992;5.924;2023-05-23T05:28:06;101467.38;;;13.00;76.17
69402;BME280;56589;51.992;5.924;2023-05-23T05:30:32;101477.25;;;12.96;76.00
69402;BME280;56589;51.992;5.924;2023-05-23T05:32:58;101471.31;;;12.92;75.93
69402;BME280;56589;51.992;5.924;2023-05-23T05:35:24;101476.97;;;12.86;76.15
69402;BME280;56589;51.992;5.924;2023-05-23T05:37:50;101478.97;;;12.83;76.27
69402;BME280;56589;51.992;5.924;2023-05-23T05:40:16;101469.66;;;12.77;76.50
69402;BME280;56589;51.992;5.924;2023-05-23T05:42:41;101474.19;;;12.75;76.32
69402;BME280;56589;51.992;5.924;2023-05-23T05:45:10;101467.50;;;12.69;76.41
69402;BME280;56589;51.992;5.924;2023-05-23T05:47:36;101484.72;;;12.61;76.40
69402;BME280;56589;51.992;5.924;2023-05-23T05:50:02;101485.88;;;12.57;76.47
69402;BME280;56589;51.992;5.924;2023-05-23T05:52:28;101485.94;;;12.55;76.65
69402;BME280;56589;51.992;5.924;2023-05-23T05:54:54;101494.69;;;12.56;76.65
69402;BME280;56589;51.992;5.924;2023-05-23T05:57:19;101498.47;;;12.52;76.45
69402;BME280;56589;51.992;5.924;2023-05-23T05:59:45;101495.06;;;12.50;76.22
69402;BME280;56589;51.992;5.924;2023-05-23T06:02:14;101501.09;;;12.52;76.68
69402;BME280;56589;51.992;5.924;2023-05-23T06:04:39;101501.94;;;12.52;76.11
69402;BME280;56589;51.992;5.924;2023-05-23T06:07:05;101490.56;;;12.52;76.54
69402;BME280;56589;51.992;5.924;2023-05-23T06:09:31;101502.69;;;12.54;76.29
69402;BME280;56589;51.992;5.924;2023-05-23T06:11:57;101515.59;;;12.59;75.99
69402;BME280;56589;51.992;5.924;2023-05-23T06:14:22;101520.19;;;12.55;75.69
69402;BME280;56589;51.992;5.924;2023-05-23T06:16:48;101520.47;;;12.51;75.66
69402;BME280;56589;51.992;5.924;2023-05-23T06:19:17;101516.31;;;12.47;75.59
69402;BME280;56589;51.992;5.924;2023-05-23T06:21:42;101522.81;;;12.41;75.87
69402;BME280;56589;51.992;5.924;2023-05-23T06:24:08;101525.81;;;12.35;76.01
69402;BME280;56589;51.992;5.924;2023-05-23T06:26:34;101531.75;;;12.38;76.08
69402;BME280;56589;51.992;5.924;2023-05-23T06:29:00;101524.50;;;12.42;75.56
69402;BME280;56589;51.992;5.924;2023-05-23T06:31:25;101536.81;;;12.41;74.92
69402;BME280;56589;51.992;5.924;2023-05-23T06:33:51;101530.34;;;12.33;74.77
69402;BME280;56589;51.992;5.924;2023-05-23T06:36:20;101533.31;;;12.27;74.78
69402;BME280;56589;51.992;5.924;2023-05-23T06:38:46;101545.72;;;12.25;74.48
69402;BME280;56589;51.992;5.924;2023-05-23T06:41:17;101541.50;;;12.22;74.61
69402;BME280;56589;51.992;5.924;2023-05-23T06:43:43;101543.28;;;12.22;73.96
69402;BME280;56589;51.992;5.924;2023-05-23T06:46:08;101546.88;;;12.19;74.31
69402;BME280;56589;51.992;5.924;2023-05-23T06:48:34;101549.53;;;12.19;74.12
69402;BME280;56589;51.992;5.924;2023-05-23T06:51:00;101551.75;;;12.27;73.34
69402;BME280;56589;51.992;5.924;2023-05-23T06:53:28;101549.97;;;12.27;72.55
69402;BME280;56589;51.992;5.924;2023-05-23T06:55:54;101556.25;;;12.25;72.66
69402;BME280;56589;51.992;5.924;2023-05-23T06:58:21;101548.59;;;12.20;72.20
69402;BME280;56589;51.992;5.924;2023-05-23T07:00:47;101561.78;;;12.20;72.19
69402;BME280;56589;51.992;5.924;2023-05-23T07:03:12;101559.13;;;12.20;71.75
69402;BME280;56589;51.992;5.924;2023-05-23T07:05:38;101567.47;;;12.28;71.43
69402;BME280;56589;51.992;5.924;2023-05-23T07:08:04;101575.38;;;12.42;71.39
69402;BME280;56589;51.992;5.924;2023-05-23T07:10:33;101559.25;;;12.77;71.27
69402;BME280;56589;51.992;5.924;2023-05-23T07:12:58;101571.47;;;13.21;69.59
69402;BME280;56589;51.992;5.924;2023-05-23T07:15:24;101575.38;;;13.42;67.87
69402;BME280;56589;51.992;5.924;2023-05-23T07:17:50;101565.31;;;13.63;66.68
69402;BME280;56589;51.992;5.924;2023-05-23T07:20:16;101566.25;;;13.89;67.33
69402;BME280;56589;51.992;5.924;2023-05-23T07:22:41;101572.16;;;14.20;66.59
69402;BME280;56589;51.992;5.924;2023-05-23T07:25:07;101578.28;;;14.33;64.35
69402;BME280;56589;51.992;5.924;2023-05-23T07:27:36;101573.00;;;14.33;63.56
69402;BME280;56589;51.992;5.924;2023-05-23T07:30:03;101577.69;;;14.42;64.11
69402;BME280;56589;51.992;5.924;2023-05-23T07:32:30;101581.44;;;14.65;64.00
69402;BME280;56589;51.992;5.924;2023-05-23T07:34:55;101584.16;;;14.89;62.49
69402;BME280;56589;51.992;5.924;2023-05-23T07:37:21;101587.44;;;15.05;61.16
69402;BME280;56589;51.992;5.924;2023-05-23T07:39:47;101602.03;;;15.11;59.55
69402;BME280;56589;51.992;5.924;2023-05-23T07:42:13;101598.34;;;14.88;59.15
69402;BME280;56589;51.992;5.924;2023-05-23T07:44:42;101595.19;;;14.83;59.47
69402;BME280;56589;51.992;5.924;2023-05-23T07:47:08;101588.72;;;14.87;59.08
69402;BME280;56589;51.992;5.924;2023-05-23T07:49:34;101593.56;;;15.19;60.02
69402;BME280;56589;51.992;5.924;2023-05-23T07:51:59;101586.59;;;15.54;59.43
69402;BME280;56589;51.992;5.924;2023-05-23T07:54:25;101604.41;;;15.89;59.04
69402;BME280;56589;51.992;5.924;2023-05-23T07:56:51;101600.03;;;16.01;57.19
69402;BME280;56589;51.992;5.924;2023-05-23T07:59:17;101612.06;;;15.81;57.58
69402;BME280;56589;51.992;5.924;2023-05-23T08:01:46;101612.34;;;15.52;57.98
69402;BME280;56589;51.992;5.924;2023-05-23T08:04:11;101605.41;;;15.26;58.60
69402;BME280;56589;51.992;5.924;2023-05-23T08:06:37;101607.09;;;15.14;58.60
69402;BME280;56589;51.992;5.924;2023-05-23T08:09:03;101607.09;;;15.14;59.13
69402;BME280;56589;51.992;5.924;2023-05-23T08:11:29;101618.53;;;14.89;59.19
69402;BME280;56589;51.992;5.924;2023-05-23T08:13:55;101623.84;;;14.76;59.37
69402;BME280;56589;51.992;5.924;2023-05-23T08:16:21;101618.53;;;14.64;59.98
69402;BME280;56589;51.992;5.924;2023-05-23T08:18:49;101628.06;;;14.39;60.25
69402;BME280;56589;51.992;5.924;2023-05-23T08:21:15;101617.78;;;14.22;59.90
69402;BME280;56589;51.992;5.924;2023-05-23T08:23:40;101627.69;;;14.05;60.33
69402;BME280;56589;51.992;5.924;2023-05-23T08:26:06;101641.44;;;14.11;61.37
69402;BME280;56589;51.992;5.924;2023-05-23T08:28:32;101630.41;;;14.31;61.06
69402;BME280;56589;51.992;5.924;2023-05-23T08:30:58;101633.44;;;14.65;60.63
69402;BME280;56589;51.992;5.924;2023-05-23T08:33:23;101650.94;;;15.05;60.36
69402;BME280;56589;51.992;5.924;2023-05-23T08:35:52;101635.56;;;15.36;58.81
69402;BME280;56589;51.992;5.924;2023-05-23T08:38:18;101641.22;;;15.55;59.06
69402;BME280;56589;51.992;5.924;2023-05-23T08:40:49;101647.75;;;15.88;58.02
69402;BME280;56589;51.992;5.924;2023-05-23T08:43:15;101647.91;;;16.22;58.09
69402;BME280;56589;51.992;5.924;2023-05-23T08:45:42;101648.25;;;16.76;57.56
69402;BME280;56589;51.992;5.924;2023-05-23T08:48:08;101647.44;;;17.09;54.98
69402;BME280;56589;51.992;5.924;2023-05-23T08:50:36;101653.50;;;17.00;53.68
69402;BME280;56589;51.992;5.924;2023-05-23T08:53:08;101660.09;;;16.83;53.66
69402;BME280;56589;51.992;5.924;2023-05-23T08:55:36;101656.34;;;16.75;54.45
69402;BME280;56589;51.992;5.924;2023-05-23T08:58:02;101661.06;;;16.58;53.48
69402;BME280;56589;51.992;5.924;2023-05-23T09:00:28;101666.78;;;16.17;53.82
69402;BME280;56589;51.992;5.924;2023-05-23T09:02:54;101655.28;;;15.81;54.11
69402;BME280;56589;51.992;5.924;2023-05-23T09:05:21;101661.25;;;15.59;55.05
69402;BME280;56589;51.992;5.924;2023-05-23T09:07:47;101663.66;;;15.62;55.84
69402;BME280;56589;51.992;5.924;2023-05-23T09:10:16;101666.53;;;15.72;55.64
69402;BME280;56589;51.992;5.924;2023-05-23T09:12:43;101661.66;;;15.79;55.26
69402;BME280;56589;51.992;5.924;2023-05-23T09:15:11;101675.63;;;15.81;55.63
69402;BME280;56589;51.992;5.924;2023-05-23T09:17:37;101665.22;;;15.90;54.08
69402;BME280;56589;51.992;5.924;2023-05-23T09:20:10;101663.84;;;15.85;53.04
69402;BME280;56589;51.992;5.924;2023-05-23T09:22:37;101675.69;;;15.92;54.08
69402;BME280;56589;51.992;5.924;2023-05-23T09:25:04;101682.22;;;15.99;51.87
69402;BME280;56589;51.992;5.924;2023-05-23T09:27:34;101689.22;;;15.76;51.82
69402;BME280;56589;51.992;5.924;2023-05-23T09:30:04;101684.34;;;15.57;53.06
69402;BME280;56589;51.992;5.924;2023-05-23T09:32:31;101691.41;;;15.57;53.78
69402;BME280;56589;51.992;5.924;2023-05-23T09:34:58;101684.75;;;15.64;53.37
69402;BME280;56589;51.992;5.924;2023-05-23T09:37:29;101689.53;;;15.72;53.71
69402;BME280;56589;51.992;5.924;2023-05-23T09:39:56;101688.13;;;15.79;51.96
69402;BME280;56589;51.992;5.924;2023-05-23T09:42:23;101691.94;;;15.75;52.54
69402;BME280;56589;51.992;5.924;2023-05-23T09:44:52;101686.56;;;15.63;52.28
69402;BME280;56589;51.992;5.924;2023-05-23T09:47:18;101691.09;;;15.61;52.29
69402;BME280;56589;51.992;5.924;2023-05-23T09:49:45;101687.84;;;15.71;52.72
69402;BME280;56589;51.992;5.924;2023-05-23T09:52:11;101694.03;;;15.95;52.40
69402;BME280;56589;51.992;5.924;2023-05-23T09:54:37;101687.28;;;16.15;51.88
69402;BME280;56589;51.992;5.924;2023-05-23T09:57:05;101688.72;;;16.43;52.26
69402;BME280;56589;51.992;5.924;2023-05-23T09:59:37;101689.59;;;16.79;51.36
69402;BME280;56589;51.992;5.924;2023-05-23T10:02:10;101689.63;;;16.90;50.12
69402;BME280;56589;51.992;5.924;2023-05-23T10:04:38;101685.44;;;16.98;51.17
69402;BME280;56589;51.992;5.924;2023-05-23T10:07:11;101686.56;;;17.18;50.38
69402;BME280;56589;51.992;5.924;2023-05-23T10:09:38;101686.34;;;17.55;50.84
69402;BME280;56589;51.992;5.924;2023-05-23T10:15:13;101676.47;;;18.44;48.75
69402;BME280;56589;51.992;5.924;2023-05-23T10:17:52;101681.16;;;18.83;46.11
69402;BME280;56589;51.992;5.924;2023-05-23T10:20:29;101685.75;;;19.02;47.38
69402;BME280;56589;51.992;5.924;2023-05-23T10:22:58;101688.88;;;19.07;45.57
69402;BME280;56589;51.992;5.924;2023-05-23T10:25:25;101690.75;;;18.96;45.00
69402;BME280;56589;51.992;5.924;2023-05-23T10:27:54;101697.63;;;18.77;44.61
69402;BME280;56589;51.992;5.924;2023-05-23T10:30:21;101687.44;;;18.62;44.57
69402;BME280;56589;51.992;5.924;2023-05-23T10:32:50;101692.63;;;18.63;43.38
69402;BME280;56589;51.992;5.924;2023-05-23T10:35:22;101686.88;;;18.47;42.93
69402;BME280;56589;51.992;5.924;2023-05-23T10:38:03;101687.38;;;18.41;43.84
69402;BME280;56589;51.992;5.924;2023-05-23T10:40:45;101689.19;;;18.40;41.71
69402;BME280;56589;51.992;5.924;2023-05-23T10:43:24;101678.72;;;18.27;43.56
69402;BME280;56589;51.992;5.924;2023-05-23T10:45:55;101684.16;;;18.26;43.16
69402;BME280;56589;51.992;5.924;2023-05-23T10:48:31;101694.81;;;18.15;43.24
69402;BME280;56589;51.992;5.924;2023-05-23T10:51:02;101684.19;;;18.15;42.63
69402;BME280;56589;51.992;5.924;2023-05-23T10:53:31;101682.59;;;18.23;42.81
69402;BME280;56589;51.992;5.924;2023-05-23T10:56:00;101691.41;;;18.24;42.92
69402;BME280;56589;51.992;5.924;2023-05-23T10:58:28;101689.25;;;18.18;42.45
69402;BME280;56589;51.992;5.924;2023-05-23T11:00:56;101693.41;;;18.11;42.39
69402;BME280;56589;51.992;5.924;2023-05-23T11:03:35;101697.69;;;17.91;42.48
69402;BME280;56589;51.992;5.924;2023-05-23T11:06:02;101699.88;;;17.74;43.36
69402;BME280;56589;51.992;5.924;2023-05-23T11:08:36;101686.56;;;17.63;43.18
69402;BME280;56589;51.992;5.924;2023-05-23T11:11:03;101708.78;;;17.51;43.29
69402;BME280;56589;51.992;5.924;2023-05-23T11:13:53;101689.09;;;17.53;43.38
69402;BME280;56589;51.992;5.924;2023-05-23T11:16:29;101683.91;;;17.63;44.06
69402;BME280;56589;51.992;5.924;2023-05-23T11:19:23;101683.75;;;17.98;44.03
69402;BME280;56589;51.992;5.924;2023-05-23T11:21:52;101692.94;;;18.38;42.48
69402;BME280;56589;51.992;5.924;2023-05-23T11:24:19;101683.38;;;18.46;42.04
69402;BME280;56589;51.992;5.924;2023-05-23T11:26:51;101690.25;;;18.49;41.43
69402;BME280;56589;51.992;5.924;2023-05-23T11:29:18;101681.03;;;18.53;42.40
69402;BME280;56589;51.992;5.924;2023-05-23T11:31:44;101686.09;;;18.56;42.08
69402;BME280;56589;51.992;5.924;2023-05-23T11:34:10;101698.38;;;18.36;41.63
69402;BME280;56589;51.992;5.924;2023-05-23T11:36:39;101699.06;;;18.17;42.17
69402;BME280;56589;51.992;5.924;2023-05-23T11:39:05;101701.25;;;18.12;43.10
69402;BME280;56589;51.992;5.924;2023-05-23T11:41:34;101702.44;;;18.19;43.02
69402;BME280;56589;51.992;5.924;2023-05-23T11:44:00;101698.75;;;18.31;43.34
69402;BME280;56589;51.992;5.924;2023-05-23T11:46:26;101713.66;;;18.55;42.43
69402;BME280;56589;51.992;5.924;2023-05-23T11:48:52;101703.53;;;18.60;41.40
69402;BME280;56589;51.992;5.924;2023-05-23T11:51:18;101706.13;;;18.71;41.08
69402;BME280;56589;51.992;5.924;2023-05-23T11:53:46;101705.16;;;18.72;41.00
69402;BME280;56589;51.992;5.924;2023-05-23T11:56:14;101706.88;;;18.62;41.69
69402;BME280;56589;51.992;5.924;2023-05-23T11:58:40;101712.97;;;18.53;41.71
69402;BME280;56589;51.992;5.924;2023-05-23T12:01:07;101705.53;;;18.36;41.95
69402;BME280;56589;51.992;5.924;2023-05-23T12:03:44;101710.00;;;18.35;42.88
69402;BME280;56589;51.992;5.924;2023-05-23T12:06:11;101702.84;;;18.47;42.15
69402;BME280;56589;51.992;5.924;2023-05-23T12:08:39;101711.19;;;18.42;41.89
69402;BME280;56589;51.992;5.924;2023-05-23T12:11:07;101702.84;;;18.47;41.32
69402;BME280;56589;51.992;5.924;2023-05-23T12:13:33;101703.59;;;18.26;40.46
69402;BME280;56589;51.992;5.924;2023-05-23T12:16:00;101706.94;;;17.96;41.18
69402;BME280;56589;51.992;5.924;2023-05-23T12:18:28;101717.72;;;17.84;41.34
69402;BME280;56589;51.992;5.924;2023-05-23T12:20:58;101719.28;;;17.64;41.52
69402;BME280;56589;51.992;5.924;2023-05-23T12:23:26;101713.13;;;17.63;42.03
69402;BME280;56589;51.992;5.924;2023-05-23T12:25:53;101717.47;;;17.75;41.50
69402;BME280;56589;51.992;5.924;2023-05-23T12:28:34;101725.81;;;17.93;40.96
69402;BME280;56589;51.992;5.924;2023-05-23T12:31:08;101721.81;;;17.99;39.99
69402;BME280;56589;51.992;5.924;2023-05-23T12:33:37;101727.63;;;17.82;40.40
69402;BME280;56589;51.992;5.924;2023-05-23T12:36:04;101723.06;;;17.72;40.27
69402;BME280;56589;51.992;5.924;2023-05-23T12:38:31;101725.91;;;17.58;40.88
69402;BME280;56589;51.992;5.924;2023-05-23T12:41:07;101718.06;;;17.57;41.98
69402;BME280;56589;51.992;5.924;2023-05-23T12:43:39;101724.25;;;17.79;41.59
69402;BME280;56589;51.992;5.924;2023-05-23T12:46:05;101733.28;;;17.99;41.56
69402;BME280;56589;51.992;5.924;2023-05-23T12:48:31;101735.28;;;18.29;41.04
69402;BME280;56589;51.992;5.924;2023-05-23T12:50:56;101734.63;;;18.37;40.46
69402;BME280;56589;51.992;5.924;2023-05-23T12:53:22;101737.47;;;18.24;39.57
69402;BME280;56589;51.992;5.924;2023-05-23T12:55:48;101735.59;;;17.93;39.52
69402;BME280;56589;51.992;5.924;2023-05-23T12:58:14;101742.72;;;17.70;40.68